White Shark — 9LU2522 — position and weather

sailwx.info

Track history (hours):
 
Tides and Currents Weather Stations Pressure Air Temp Water Temp Dewpoint Dewpoint Depression Visibility Wind Speed Wind Dir Waves Ship Positions

White Shark

Last reported at 2018-Jun-12 10:53 UTC. Time now 2018-Jun-22 09:30 UTC.
Position N 32°24' E 015°18'.
Warning: this ship's position is 9 days out of date.

Length 167 m; draft 9 m.

Type: Cargo ship. MMSI: 667001719.

Date/timePositionNaut miles runAvg speedWind from/ knotsBaromVisibWave heightAir tempDewpointWater temp
2018-Jun-12 10:53N 32°24' E 015°18'0 0.0
2018-Jun-12 10:29N 32°24' E 015°18'0 0.0
2018-Jun-12 09:56N 32°24' E 015°18'0 0.0
2018-Jun-12 01:41N 32°24' E 015°18'0 0.0
2018-Jun-12 01:23N 32°24' E 015°18'0 0.0
2018-Jun-12 00:59N 32°24' E 015°18'0 0.0
2018-Jun-12 00:26N 32°24' E 015°18'0 0.0
2018-Jun-11 23:59N 32°24' E 015°18'0 0.0
2018-Jun-11 23:17N 32°24' E 015°18'0 0.0
2018-Jun-11 22:53N 32°24' E 015°18'0 0.0
2018-Jun-11 22:29N 32°24' E 015°18'0 0.0
2018-Jun-11 21:59N 32°24' E 015°18'0 0.0
2018-Jun-11 21:17N 32°24' E 015°18'0 0.0
2018-Jun-11 20:59N 32°24' E 015°18'0 0.0
2018-Jun-11 20:29N 32°24' E 015°18'0 0.0
2018-Jun-11 19:41N 32°24' E 015°18'0 0.0
2018-Jun-11 19:29N 32°24' E 015°18'0 0.0
2018-Jun-11 18:47N 32°24' E 015°18'0 0.0
2018-Jun-11 17:29N 32°24' E 015°18'0 0.0
2018-Jun-09 18:38N 32°24' E 015°19'0 0.0
2018-Jun-09 18:29N 32°24' E 015°19'0 0.0
2018-Jun-09 17:59N 32°24' E 015°19'0 0.0
2018-Jun-09 17:23N 32°24' E 015°19'0 0.0
2018-Jun-09 16:59N 32°24' E 015°19'0 0.0
2018-Jun-09 16:17N 32°24' E 015°19'15 0.9
2018-Jun-08 23:47N 32°38' E 015°23'611.9
2018-Jun-08 23:18N 32°41' E 015°29'4012.1
2018-Jun-08 19:58N 32°56' E 016°14'812.4
2018-Jun-08 19:21N 32°60' E 016°22'412.4
2018-Jun-08 19:00N 33°02' E 016°26'712.6
2018-Jun-08 18:25N 33°05' E 016°34'51511.5
2018-Jun-06 21:35N 38°23' E 024°54'112.0
2018-Jun-06 21:30N 38°24' E 024°54'357 7.1
2018-Jun-04 19:24N 43°02' E 029°49'1711.8
2018-Jun-04 18:00N 43°18' E 029°55'2211.9
2018-Jun-04 16:08N 43°40' E 030°04'212.1
2018-Jun-04 15:58N 43°42' E 030°04'712.1
2018-Jun-04 15:21N 43°49' E 030°07'612.2
2018-Jun-04 14:53N 43°54' E 030°09'512.3
2018-Jun-04 14:30N 43°59' E 030°11'612.2
2018-Jun-04 14:00N 44°05' E 030°14'13411.3
2018-Jun-04 02:05N 46°16' E 030°54'311.7
2018-Jun-04 01:50N 46°19' E 030°55'411.7
2018-Jun-04 01:31N 46°22' E 030°55'611.8
2018-Jun-04 01:01N 46°28' E 030°56'5 9.6
2018-Jun-04 00:31N 46°33' E 030°58'5 9.1
2018-Jun-04 00:00N 46°34' E 031°04'510.0
2018-Jun-03 23:30N 46°35' E 031°12'611.1
2018-Jun-03 23:00N 46°35' E 031°20'10 9.9
2018-Jun-03 21:59N 46°35' E 031°34'610.3
2018-Jun-03 21:26N 46°36' E 031°43'510.2
2018-Jun-03 20:59N 46°36' E 031°49'5 9.9
2018-Jun-03 20:30N 46°39' E 031°55'5 9.6
2018-Jun-03 20:01N 46°43' E 031°56'5 9.2
2018-Jun-03 19:31N 46°47' E 031°53'5 9.5
2018-Jun-03 19:01N 46°51' E 031°57'5 9.1
2018-Jun-03 18:30N 46°55' E 032°01'2 4.5
2018-Jun-03 18:01N 46°56' E 031°59'0 0.3
2018-Jun-03 17:28N 46°57' E 031°59'0 0.0
2018-Jun-03 16:58N 46°57' E 031°59'0 0.0
2018-Jun-03 16:28N 46°57' E 031°59'0 0.0
2018-Jun-03 15:58N 46°57' E 031°59'0 0.0
2018-Jun-03 15:28N 46°57' E 031°59'0 0.0
2018-Jun-03 14:58N 46°57' E 031°59'0 0.0
2018-Jun-03 14:28N 46°57' E 031°59'0 0.0
2018-Jun-03 13:58N 46°57' E 031°59'0 0.0
2018-Jun-03 13:28N 46°57' E 031°59'0 0.0
2018-Jun-03 12:58N 46°57' E 031°59'0 0.0
2018-Jun-03 12:28N 46°57' E 031°59'0 0.0
2018-Jun-03 11:58N 46°57' E 031°59'0 0.0
2018-Jun-03 11:28N 46°57' E 031°59'0 0.0
2018-Jun-03 10:58N 46°57' E 031°59'0 0.0
2018-Jun-03 10:28N 46°57' E 031°59'0 0.0
2018-Jun-03 09:58N 46°57' E 031°59'0 0.0
2018-Jun-03 09:28N 46°57' E 031°59'0 0.0
2018-Jun-03 08:58N 46°57' E 031°59'0 0.0
2018-Jun-03 08:28N 46°57' E 031°59'0 0.0
2018-Jun-03 07:58N 46°57' E 031°59'0 0.0
2018-Jun-03 07:28N 46°57' E 031°59'0 0.0
2018-Jun-03 06:58N 46°57' E 031°59'0 0.0
2018-Jun-03 06:28N 46°57' E 031°59'0 0.0
2018-Jun-03 05:58N 46°57' E 031°59'0 0.0
2018-Jun-03 05:28N 46°57' E 031°59'0 0.0
2018-Jun-03 04:58N 46°57' E 031°59'0 0.0
2018-Jun-03 04:28N 46°57' E 031°59'0 0.0
2018-Jun-03 03:58N 46°57' E 031°59'0 0.0
2018-Jun-03 03:28N 46°57' E 031°59'0 0.0
2018-Jun-03 02:58N 46°57' E 031°59'0 0.0
2018-Jun-03 02:28N 46°57' E 031°59'0 0.0
2018-Jun-03 01:58N 46°57' E 031°59'0 0.0
2018-Jun-03 01:28N 46°57' E 031°59'0 0.0
2018-Jun-03 00:58N 46°57' E 031°59'0 0.0
2018-Jun-03 00:28N 46°57' E 031°59'0 0.0
2018-Jun-02 23:58N 46°57' E 031°59'0 0.0
2018-Jun-02 23:28N 46°57' E 031°59'0 0.0
2018-Jun-02 22:40N 46°57' E 031°59'0 0.0
2018-Jun-02 22:28N 46°57' E 031°59'0 0.0
2018-Jun-02 21:58N 46°57' E 031°59'0 0.0
2018-Jun-02 21:28N 46°57' E 031°59'0 0.0
2018-Jun-02 20:58N 46°57' E 031°59'0 0.0
2018-Jun-02 20:28N 46°57' E 031°59'0 0.0
2018-Jun-02 19:58N 46°57' E 031°59'0 0.0
2018-Jun-02 19:28N 46°57' E 031°59'0 0.0
2018-Jun-02 18:58N 46°57' E 031°59'0 0.0
2018-Jun-02 18:28N 46°57' E 031°59'0 0.0
2018-Jun-02 17:58N 46°57' E 031°59'0 0.0
2018-Jun-02 17:28N 46°57' E 031°59'0 0.0
2018-Jun-02 16:58N 46°57' E 031°59'0 0.0
2018-Jun-02 16:28N 46°57' E 031°59'0 0.0
2018-Jun-02 15:58N 46°57' E 031°59'0 0.0
2018-Jun-02 15:28N 46°57' E 031°59'0 0.0
2018-Jun-02 14:58N 46°57' E 031°59'0 0.0
2018-Jun-02 14:28N 46°57' E 031°59'0 0.0
2018-Jun-02 13:58N 46°57' E 031°59'0 0.0
2018-Jun-02 13:28N 46°57' E 031°59'0 0.0
2018-Jun-02 12:58N 46°57' E 031°59'0 0.0
2018-Jun-02 12:28N 46°57' E 031°59'0 0.0
2018-Jun-02 11:58N 46°57' E 031°59'0 0.0
2018-Jun-02 11:28N 46°57' E 031°59'0 0.0
2018-Jun-02 10:58N 46°57' E 031°59'  
Track history (hours):
 
Tides and Currents Weather Stations Pressure Air Temp Water Temp Dewpoint Dewpoint Depression Visibility Wind Speed Wind Dir Waves Ship Positions

White Shark

Last reported at 2018-Jun-12 10:53 UTC. Time now 2018-Jun-22 09:30 UTC.
Position N 32°24' E 015°18'.
Warning: this ship's position is 9 days out of date.

Length 167 m; draft 9 m.

Type: Cargo ship. MMSI: 667001719.

Date/timePositionNaut miles runAvg speedWind from/ knotsBaromVisibWave heightAir tempDewpointWater temp
2018-Jun-12 10:53N 32°24' E 015°18'0 0.0
2018-Jun-12 10:29N 32°24' E 015°18'0 0.0
2018-Jun-12 09:56N 32°24' E 015°18'0 0.0
2018-Jun-12 01:41N 32°24' E 015°18'0 0.0
2018-Jun-12 01:23N 32°24' E 015°18'0 0.0
2018-Jun-12 00:59N 32°24' E 015°18'0 0.0
2018-Jun-12 00:26N 32°24' E 015°18'0 0.0
2018-Jun-11 23:59N 32°24' E 015°18'0 0.0
2018-Jun-11 23:17N 32°24' E 015°18'0 0.0
2018-Jun-11 22:53N 32°24' E 015°18'0 0.0
2018-Jun-11 22:29N 32°24' E 015°18'0 0.0
2018-Jun-11 21:59N 32°24' E 015°18'0 0.0
2018-Jun-11 21:17N 32°24' E 015°18'0 0.0
2018-Jun-11 20:59N 32°24' E 015°18'0 0.0
2018-Jun-11 20:29N 32°24' E 015°18'0 0.0
2018-Jun-11 19:41N 32°24' E 015°18'0 0.0
2018-Jun-11 19:29N 32°24' E 015°18'0 0.0
2018-Jun-11 18:47N 32°24' E 015°18'0 0.0
2018-Jun-11 17:29N 32°24' E 015°18'0 0.0
2018-Jun-09 18:38N 32°24' E 015°19'0 0.0
2018-Jun-09 18:29N 32°24' E 015°19'0 0.0
2018-Jun-09 17:59N 32°24' E 015°19'0 0.0
2018-Jun-09 17:23N 32°24' E 015°19'0 0.0
2018-Jun-09 16:59N 32°24' E 015°19'0 0.0
2018-Jun-09 16:17N 32°24' E 015°19'15 0.9
2018-Jun-08 23:47N 32°38' E 015°23'611.9
2018-Jun-08 23:18N 32°41' E 015°29'4012.1
2018-Jun-08 19:58N 32°56' E 016°14'812.4
2018-Jun-08 19:21N 32°60' E 016°22'412.4
2018-Jun-08 19:00N 33°02' E 016°26'712.6
2018-Jun-08 18:25N 33°05' E 016°34'51511.5
2018-Jun-06 21:35N 38°23' E 024°54'112.0
2018-Jun-06 21:30N 38°24' E 024°54'357 7.1
2018-Jun-04 19:24N 43°02' E 029°49'1711.8
2018-Jun-04 18:00N 43°18' E 029°55'2211.9
2018-Jun-04 16:08N 43°40' E 030°04'212.1
2018-Jun-04 15:58N 43°42' E 030°04'712.1
2018-Jun-04 15:21N 43°49' E 030°07'612.2
2018-Jun-04 14:53N 43°54' E 030°09'512.3
2018-Jun-04 14:30N 43°59' E 030°11'612.2
2018-Jun-04 14:00N 44°05' E 030°14'13411.3
2018-Jun-04 02:05N 46°16' E 030°54'311.7
2018-Jun-04 01:50N 46°19' E 030°55'411.7
2018-Jun-04 01:31N 46°22' E 030°55'611.8
2018-Jun-04 01:01N 46°28' E 030°56'5 9.6
2018-Jun-04 00:31N 46°33' E 030°58'5 9.1
2018-Jun-04 00:00N 46°34' E 031°04'510.0
2018-Jun-03 23:30N 46°35' E 031°12'611.1
2018-Jun-03 23:00N 46°35' E 031°20'10 9.9
2018-Jun-03 21:59N 46°35' E 031°34'610.3
2018-Jun-03 21:26N 46°36' E 031°43'510.2
2018-Jun-03 20:59N 46°36' E 031°49'5 9.9
2018-Jun-03 20:30N 46°39' E 031°55'5 9.6
2018-Jun-03 20:01N 46°43' E 031°56'5 9.2
2018-Jun-03 19:31N 46°47' E 031°53'5 9.5
2018-Jun-03 19:01N 46°51' E 031°57'5 9.1
2018-Jun-03 18:30N 46°55' E 032°01'2 4.5
2018-Jun-03 18:01N 46°56' E 031°59'0 0.3
2018-Jun-03 17:28N 46°57' E 031°59'0 0.0
2018-Jun-03 16:58N 46°57' E 031°59'0 0.0
2018-Jun-03 16:28N 46°57' E 031°59'0 0.0
2018-Jun-03 15:58N 46°57' E 031°59'0 0.0
2018-Jun-03 15:28N 46°57' E 031°59'0 0.0
2018-Jun-03 14:58N 46°57' E 031°59'0 0.0
2018-Jun-03 14:28N 46°57' E 031°59'0 0.0
2018-Jun-03 13:58N 46°57' E 031°59'0 0.0
2018-Jun-03 13:28N 46°57' E 031°59'0 0.0
2018-Jun-03 12:58N 46°57' E 031°59'0 0.0
2018-Jun-03 12:28N 46°57' E 031°59'0 0.0
2018-Jun-03 11:58N 46°57' E 031°59'0 0.0
2018-Jun-03 11:28N 46°57' E 031°59'0 0.0
2018-Jun-03 10:58N 46°57' E 031°59'0 0.0
2018-Jun-03 10:28N 46°57' E 031°59'0 0.0
2018-Jun-03 09:58N 46°57' E 031°59'0 0.0
2018-Jun-03 09:28N 46°57' E 031°59'0 0.0
2018-Jun-03 08:58N 46°57' E 031°59'0 0.0
2018-Jun-03 08:28N 46°57' E 031°59'0 0.0
2018-Jun-03 07:58N 46°57' E 031°59'0 0.0
2018-Jun-03 07:28N 46°57' E 031°59'0 0.0
2018-Jun-03 06:58N 46°57' E 031°59'0 0.0
2018-Jun-03 06:28N 46°57' E 031°59'0 0.0
2018-Jun-03 05:58N 46°57' E 031°59'0 0.0
2018-Jun-03 05:28N 46°57' E 031°59'0 0.0
2018-Jun-03 04:58N 46°57' E 031°59'0 0.0
2018-Jun-03 04:28N 46°57' E 031°59'0 0.0
2018-Jun-03 03:58N 46°57' E 031°59'0 0.0
2018-Jun-03 03:28N 46°57' E 031°59'0 0.0
2018-Jun-03 02:58N 46°57' E 031°59'0 0.0
2018-Jun-03 02:28N 46°57' E 031°59'0 0.0
2018-Jun-03 01:58N 46°57' E 031°59'0 0.0
2018-Jun-03 01:28N 46°57' E 031°59'0 0.0
2018-Jun-03 00:58N 46°57' E 031°59'0 0.0
2018-Jun-03 00:28N 46°57' E 031°59'0 0.0
2018-Jun-02 23:58N 46°57' E 031°59'0 0.0
2018-Jun-02 23:28N 46°57' E 031°59'0 0.0
2018-Jun-02 22:40N 46°57' E 031°59'0 0.0
2018-Jun-02 22:28N 46°57' E 031°59'0 0.0
2018-Jun-02 21:58N 46°57' E 031°59'0 0.0
2018-Jun-02 21:28N 46°57' E 031°59'0 0.0
2018-Jun-02 20:58N 46°57' E 031°59'0 0.0
2018-Jun-02 20:28N 46°57' E 031°59'0 0.0
2018-Jun-02 19:58N 46°57' E 031°59'0 0.0
2018-Jun-02 19:28N 46°57' E 031°59'0 0.0
2018-Jun-02 18:58N 46°57' E 031°59'0 0.0
2018-Jun-02 18:28N 46°57' E 031°59'0 0.0
2018-Jun-02 17:58N 46°57' E 031°59'0 0.0
2018-Jun-02 17:28N 46°57' E 031°59'0 0.0
2018-Jun-02 16:58N 46°57' E 031°59'0 0.0
2018-Jun-02 16:28N 46°57' E 031°59'0 0.0
2018-Jun-02 15:58N 46°57' E 031°59'0 0.0
2018-Jun-02 15:28N 46°57' E 031°59'0 0.0
2018-Jun-02 14:58N 46°57' E 031°59'0 0.0
2018-Jun-02 14:28N 46°57' E 031°59'0 0.0
2018-Jun-02 13:58N 46°57' E 031°59'0 0.0
2018-Jun-02 13:28N 46°57' E 031°59'0 0.0
2018-Jun-02 12:58N 46°57' E 031°59'0 0.0
2018-Jun-02 12:28N 46°57' E 031°59'0 0.0
2018-Jun-02 11:58N 46°57' E 031°59'0 0.0
2018-Jun-02 11:28N 46°57' E 031°59'0 0.0
2018-Jun-02 10:58N 46°57' E 031°59'  

Dump ship's entire track history